sensor_id;sensor_type;location;lat;lon;timestamp;P1;durP1;ratioP1;P2;durP2;ratioP2
64459;SDS011;50828;53.756;21.140;2022-07-23T00:01:47;7.70;;;6.00;;
64459;SDS011;50828;53.756;21.140;2022-07-23T00:06:56;7.80;;;6.70;;
64459;SDS011;50828;53.756;21.140;2022-07-23T00:17:33;9.30;;;8.40;;
64459;SDS011;50828;53.756;21.140;2022-07-23T00:22:47;11.20;;;9.00;;
64459;SDS011;50828;53.756;21.140;2022-07-23T00:27:56;9.80;;;8.20;;
64459;SDS011;50828;53.756;21.140;2022-07-23T00:33:06;8.10;;;7.30;;
64459;SDS011;50828;53.756;21.140;2022-07-23T00:38:15;9.50;;;7.30;;
64459;SDS011;50828;53.756;21.140;2022-07-23T00:43:23;9.60;;;7.40;;
64459;SDS011;50828;53.756;21.140;2022-07-23T00:48:31;9.60;;;7.60;;
64459;SDS011;50828;53.756;21.140;2022-07-23T00:53:40;11.40;;;7.80;;
64459;SDS011;50828;53.756;21.140;2022-07-23T00:58:48;11.50;;;7.30;;
64459;SDS011;50828;53.756;21.140;2022-07-23T01:03:57;9.00;;;7.70;;
64459;SDS011;50828;53.756;21.140;2022-07-23T01:09:05;10.20;;;7.70;;
64459;SDS011;50828;53.756;21.140;2022-07-23T01:14:14;9.90;;;8.00;;
64459;SDS011;50828;53.756;21.140;2022-07-23T01:19:23;9.40;;;8.30;;
64459;SDS011;50828;53.756;21.140;2022-07-23T01:24:31;9.40;;;8.40;;
64459;SDS011;50828;53.756;21.140;2022-07-23T01:29:43;10.80;;;8.90;;
64459;SDS011;50828;53.756;21.140;2022-07-23T01:34:57;11.40;;;8.80;;
64459;SDS011;50828;53.756;21.140;2022-07-23T01:40:06;10.70;;;8.70;;
64459;SDS011;50828;53.756;21.140;2022-07-23T01:45:15;9.80;;;8.60;;
64459;SDS011;50828;53.756;21.140;2022-07-23T01:50:27;12.30;;;9.60;;
64459;SDS011;50828;53.756;21.140;2022-07-23T01:55:50;11.90;;;9.80;;
64459;SDS011;50828;53.756;21.140;2022-07-23T02:00:58;13.20;;;10.40;;
64459;SDS011;50828;53.756;21.140;2022-07-23T02:06:07;12.00;;;9.00;;
64459;SDS011;50828;53.756;21.140;2022-07-23T02:11:15;11.80;;;9.20;;
64459;SDS011;50828;53.756;21.140;2022-07-23T02:16:23;11.80;;;10.10;;
64459;SDS011;50828;53.756;21.140;2022-07-23T02:21:37;12.20;;;9.50;;
64459;SDS011;50828;53.756;21.140;2022-07-23T02:26:45;11.10;;;9.50;;
64459;SDS011;50828;53.756;21.140;2022-07-23T02:31:53;13.90;;;10.10;;
64459;SDS011;50828;53.756;21.140;2022-07-23T02:37:02;12.10;;;10.40;;
64459;SDS011;50828;53.756;21.140;2022-07-23T02:42:10;11.70;;;9.80;;
64459;SDS011;50828;53.756;21.140;2022-07-23T02:47:18;12.40;;;9.90;;
64459;SDS011;50828;53.756;21.140;2022-07-23T02:52:26;13.50;;;9.90;;
64459;SDS011;50828;53.756;21.140;2022-07-23T02:57:34;13.20;;;10.90;;
64459;SDS011;50828;53.756;21.140;2022-07-23T03:02:43;12.20;;;9.90;;
64459;SDS011;50828;53.756;21.140;2022-07-23T03:07:51;13.70;;;10.50;;
64459;SDS011;50828;53.756;21.140;2022-07-23T03:12:59;11.50;;;10.30;;
64459;SDS011;50828;53.756;21.140;2022-07-23T03:18:07;11.70;;;10.40;;
64459;SDS011;50828;53.756;21.140;2022-07-23T03:23:15;12.60;;;10.20;;
64459;SDS011;50828;53.756;21.140;2022-07-23T03:28:24;15.90;;;9.90;;
64459;SDS011;50828;53.756;21.140;2022-07-23T03:33:32;11.50;;;9.90;;
64459;SDS011;50828;53.756;21.140;2022-07-23T03:38:40;12.50;;;10.20;;
64459;SDS011;50828;53.756;21.140;2022-07-23T03:43:48;11.90;;;10.50;;
64459;SDS011;50828;53.756;21.140;2022-07-23T03:48:56;12.30;;;9.80;;
64459;SDS011;50828;53.756;21.140;2022-07-23T03:54:05;12.00;;;10.50;;
64459;SDS011;50828;53.756;21.140;2022-07-23T03:59:13;13.40;;;10.90;;
64459;SDS011;50828;53.756;21.140;2022-07-23T04:04:27;14.40;;;10.20;;
64459;SDS011;50828;53.756;21.140;2022-07-23T04:09:35;12.00;;;10.70;;
64459;SDS011;50828;53.756;21.140;2022-07-23T04:14:49;11.90;;;10.30;;
64459;SDS011;50828;53.756;21.140;2022-07-23T04:19:57;12.20;;;10.60;;
64459;SDS011;50828;53.756;21.140;2022-07-23T04:25:09;13.80;;;10.50;;
64459;SDS011;50828;53.756;21.140;2022-07-23T04:30:21;11.10;;;9.00;;
64459;SDS011;50828;53.756;21.140;2022-07-23T04:35:30;9.60;;;8.30;;
64459;SDS011;50828;53.756;21.140;2022-07-23T04:40:47;10.50;;;8.20;;
64459;SDS011;50828;53.756;21.140;2022-07-23T04:45:56;10.00;;;8.50;;
64459;SDS011;50828;53.756;21.140;2022-07-23T04:51:06;10.00;;;7.70;;
64459;SDS011;50828;53.756;21.140;2022-07-23T04:56:14;8.70;;;7.50;;
64459;SDS011;50828;53.756;21.140;2022-07-23T05:01:22;9.20;;;7.20;;
64459;SDS011;50828;53.756;21.140;2022-07-23T05:06:31;10.10;;;8.00;;
64459;SDS011;50828;53.756;21.140;2022-07-23T05:11:39;10.70;;;7.70;;
64459;SDS011;50828;53.756;21.140;2022-07-23T05:16:48;8.70;;;7.80;;
64459;SDS011;50828;53.756;21.140;2022-07-23T05:21:59;8.20;;;7.10;;
64459;SDS011;50828;53.756;21.140;2022-07-23T05:27:08;9.10;;;7.50;;
64459;SDS011;50828;53.756;21.140;2022-07-23T05:32:16;10.50;;;7.00;;
64459;SDS011;50828;53.756;21.140;2022-07-23T05:37:31;8.70;;;7.00;;
64459;SDS011;50828;53.756;21.140;2022-07-23T05:42:41;8.40;;;7.50;;
64459;SDS011;50828;53.756;21.140;2022-07-23T05:47:49;8.20;;;6.90;;
64459;SDS011;50828;53.756;21.140;2022-07-23T05:53:03;8.00;;;6.50;;
64459;SDS011;50828;53.756;21.140;2022-07-23T05:58:47;8.50;;;6.50;;
64459;SDS011;50828;53.756;21.140;2022-07-23T06:03:56;7.70;;;6.80;;
64459;SDS011;50828;53.756;21.140;2022-07-23T06:09:11;7.70;;;6.90;;
64459;SDS011;50828;53.756;21.140;2022-07-23T06:14:21;7.70;;;6.30;;
64459;SDS011;50828;53.756;21.140;2022-07-23T06:19:32;10.10;;;7.20;;
64459;SDS011;50828;53.756;21.140;2022-07-23T06:24:40;8.70;;;6.50;;
64459;SDS011;50828;53.756;21.140;2022-07-23T06:29:49;7.60;;;6.60;;
64459;SDS011;50828;53.756;21.140;2022-07-23T06:34:58;9.40;;;7.70;;
64459;SDS011;50828;53.756;21.140;2022-07-23T06:40:07;12.00;;;7.20;;
64459;SDS011;50828;53.756;21.140;2022-07-23T06:45:17;7.80;;;6.50;;
64459;SDS011;50828;53.756;21.140;2022-07-23T06:50:26;7.20;;;6.50;;
64459;SDS011;50828;53.756;21.140;2022-07-23T06:55:35;8.60;;;6.40;;
64459;SDS011;50828;53.756;21.140;2022-07-23T07:00:44;9.40;;;7.10;;
64459;SDS011;50828;53.756;21.140;2022-07-23T07:05:53;7.80;;;6.80;;
64459;SDS011;50828;53.756;21.140;2022-07-23T07:11:01;7.50;;;6.60;;
64459;SDS011;50828;53.756;21.140;2022-07-23T07:16:09;7.90;;;6.50;;
64459;SDS011;50828;53.756;21.140;2022-07-23T07:21:17;8.70;;;7.10;;
64459;SDS011;50828;53.756;21.140;2022-07-23T07:26:25;8.70;;;7.60;;
64459;SDS011;50828;53.756;21.140;2022-07-23T07:31:34;7.80;;;6.70;;
64459;SDS011;50828;53.756;21.140;2022-07-23T07:36:42;7.80;;;6.60;;
64459;SDS011;50828;53.756;21.140;2022-07-23T07:41:51;7.50;;;6.40;;
64459;SDS011;50828;53.756;21.140;2022-07-23T07:47:00;9.10;;;6.80;;
64459;SDS011;50828;53.756;21.140;2022-07-23T07:52:08;8.70;;;6.80;;
64459;SDS011;50828;53.756;21.140;2022-07-23T07:57:17;9.00;;;7.40;;
64459;SDS011;50828;53.756;21.140;2022-07-23T08:02:26;9.90;;;7.10;;
64459;SDS011;50828;53.756;21.140;2022-07-23T08:07:35;10.40;;;6.80;;
64459;SDS011;50828;53.756;21.140;2022-07-23T08:12:45;11.10;;;6.80;;
64459;SDS011;50828;53.756;21.140;2022-07-23T08:17:58;8.90;;;7.10;;
64459;SDS011;50828;53.756;21.140;2022-07-23T08:23:07;9.40;;;7.20;;
64459;SDS011;50828;53.756;21.140;2022-07-23T08:28:16;11.00;;;7.00;;
64459;SDS011;50828;53.756;21.140;2022-07-23T08:33:25;8.50;;;6.90;;
64459;SDS011;50828;53.756;21.140;2022-07-23T08:38:38;12.30;;;7.20;;
64459;SDS011;50828;53.756;21.140;2022-07-23T08:43:48;8.50;;;5.80;;
64459;SDS011;50828;53.756;21.140;2022-07-23T08:48:58;9.50;;;6.30;;
64459;SDS011;50828;53.756;21.140;2022-07-23T08:54:08;8.20;;;6.80;;
64459;SDS011;50828;53.756;21.140;2022-07-23T08:59:18;8.20;;;6.50;;
64459;SDS011;50828;53.756;21.140;2022-07-23T09:04:27;6.60;;;5.90;;
64459;SDS011;50828;53.756;21.140;2022-07-23T09:09:37;8.70;;;6.70;;
64459;SDS011;50828;53.756;21.140;2022-07-23T09:14:46;6.60;;;6.00;;
64459;SDS011;50828;53.756;21.140;2022-07-23T09:20:02;8.60;;;6.40;;
64459;SDS011;50828;53.756;21.140;2022-07-23T09:25:18;7.40;;;5.80;;
64459;SDS011;50828;53.756;21.140;2022-07-23T09:30:27;7.10;;;5.20;;
64459;SDS011;50828;53.756;21.140;2022-07-23T09:35:46;8.70;;;5.70;;
64459;SDS011;50828;53.756;21.140;2022-07-23T09:41:08;6.80;;;6.10;;
64459;SDS011;50828;53.756;21.140;2022-07-23T09:46:21;6.40;;;5.60;;
64459;SDS011;50828;53.756;21.140;2022-07-23T09:51:31;7.30;;;5.90;;
64459;SDS011;50828;53.756;21.140;2022-07-23T09:56:50;6.60;;;5.00;;
64459;SDS011;50828;53.756;21.140;2022-07-23T10:02:00;5.80;;;5.20;;
64459;SDS011;50828;53.756;21.140;2022-07-23T10:07:13;6.50;;;4.80;;
64459;SDS011;50828;53.756;21.140;2022-07-23T10:12:47;6.60;;;5.00;;
64459;SDS011;50828;53.756;21.140;2022-07-23T10:18:11;5.90;;;5.20;;
64459;SDS011;50828;53.756;21.140;2022-07-23T10:23:22;5.00;;;4.50;;
64459;SDS011;50828;53.756;21.140;2022-07-23T10:28:49;6.40;;;5.20;;
64459;SDS011;50828;53.756;21.140;2022-07-23T10:34:12;6.90;;;5.30;;
64459;SDS011;50828;53.756;21.140;2022-07-23T10:39:29;5.60;;;4.20;;
64459;SDS011;50828;53.756;21.140;2022-07-23T10:44:41;8.10;;;4.60;;
64459;SDS011;50828;53.756;21.140;2022-07-23T10:49:50;10.20;;;4.90;;
64459;SDS011;50828;53.756;21.140;2022-07-23T11:00:44;6.80;;;4.60;;
64459;SDS011;50828;53.756;21.140;2022-07-23T11:05:53;4.40;;;4.00;;
64459;SDS011;50828;53.756;21.140;2022-07-23T11:16:26;5.50;;;4.80;;
64459;SDS011;50828;53.756;21.140;2022-07-23T11:21:53;6.40;;;5.00;;
64459;SDS011;50828;53.756;21.140;2022-07-23T11:27:02;6.10;;;4.40;;
64459;SDS011;50828;53.756;21.140;2022-07-23T11:32:22;5.80;;;4.10;;
64459;SDS011;50828;53.756;21.140;2022-07-23T11:37:38;4.70;;;4.10;;
64459;SDS011;50828;53.756;21.140;2022-07-23T11:42:54;5.00;;;3.90;;
64459;SDS011;50828;53.756;21.140;2022-07-23T11:48:06;6.00;;;4.80;;
64459;SDS011;50828;53.756;21.140;2022-07-23T11:53:16;8.30;;;4.80;;
64459;SDS011;50828;53.756;21.140;2022-07-23T11:58:30;5.60;;;4.80;;
64459;SDS011;50828;53.756;21.140;2022-07-23T12:03:49;6.80;;;4.80;;
64459;SDS011;50828;53.756;21.140;2022-07-23T12:08:59;6.20;;;4.90;;
64459;SDS011;50828;53.756;21.140;2022-07-23T12:14:07;7.10;;;5.50;;
64459;SDS011;50828;53.756;21.140;2022-07-23T12:19:18;5.30;;;4.60;;
64459;SDS011;50828;53.756;21.140;2022-07-23T12:24:26;5.40;;;4.90;;
64459;SDS011;50828;53.756;21.140;2022-07-23T12:29:36;6.10;;;5.50;;
64459;SDS011;50828;53.756;21.140;2022-07-23T12:34:45;10.60;;;6.10;;
64459;SDS011;50828;53.756;21.140;2022-07-23T12:39:54;6.70;;;5.80;;
64459;SDS011;50828;53.756;21.140;2022-07-23T12:45:09;7.40;;;6.20;;
64459;SDS011;50828;53.756;21.140;2022-07-23T12:55:56;6.30;;;5.70;;
64459;SDS011;50828;53.756;21.140;2022-07-23T13:01:26;6.90;;;6.20;;
64459;SDS011;50828;53.756;21.140;2022-07-23T13:06:37;5.50;;;4.90;;
64459;SDS011;50828;53.756;21.140;2022-07-23T13:16:55;6.30;;;5.70;;
64459;SDS011;50828;53.756;21.140;2022-07-23T13:22:04;8.20;;;4.90;;
64459;SDS011;50828;53.756;21.140;2022-07-23T13:27:13;5.40;;;4.80;;
64459;SDS011;50828;53.756;21.140;2022-07-23T13:32:23;8.00;;;4.90;;
64459;SDS011;50828;53.756;21.140;2022-07-23T13:37:32;6.80;;;5.20;;
64459;SDS011;50828;53.756;21.140;2022-07-23T13:42:41;5.80;;;5.10;;
64459;SDS011;50828;53.756;21.140;2022-07-23T13:47:50;6.00;;;4.80;;
64459;SDS011;50828;53.756;21.140;2022-07-23T13:52:59;6.50;;;5.00;;
64459;SDS011;50828;53.756;21.140;2022-07-23T13:58:09;5.20;;;4.50;;
64459;SDS011;50828;53.756;21.140;2022-07-23T14:03:18;6.30;;;4.70;;
64459;SDS011;50828;53.756;21.140;2022-07-23T14:08:30;5.00;;;4.50;;
64459;SDS011;50828;53.756;21.140;2022-07-23T14:13:39;6.60;;;5.00;;
64459;SDS011;50828;53.756;21.140;2022-07-23T14:18:47;5.80;;;4.90;;
64459;SDS011;50828;53.756;21.140;2022-07-23T14:23:56;7.10;;;4.90;;
64459;SDS011;50828;53.756;21.140;2022-07-23T14:29:04;5.50;;;4.60;;
64459;SDS011;50828;53.756;21.140;2022-07-23T14:34:12;5.70;;;4.50;;
64459;SDS011;50828;53.756;21.140;2022-07-23T14:39:28;6.00;;;4.70;;
64459;SDS011;50828;53.756;21.140;2022-07-23T14:44:37;5.50;;;5.00;;
64459;SDS011;50828;53.756;21.140;2022-07-23T14:49:47;5.30;;;4.80;;
64459;SDS011;50828;53.756;21.140;2022-07-23T14:54:55;6.90;;;4.90;;
64459;SDS011;50828;53.756;21.140;2022-07-23T15:00:03;7.60;;;4.80;;
64459;SDS011;50828;53.756;21.140;2022-07-23T15:05:13;7.30;;;5.30;;
64459;SDS011;50828;53.756;21.140;2022-07-23T15:10:22;6.30;;;4.90;;
64459;SDS011;50828;53.756;21.140;2022-07-23T15:15:30;6.00;;;5.10;;
64459;SDS011;50828;53.756;21.140;2022-07-23T15:20:41;7.50;;;4.90;;
64459;SDS011;50828;53.756;21.140;2022-07-23T15:30:59;6.20;;;5.10;;
64459;SDS011;50828;53.756;21.140;2022-07-23T15:36:12;7.40;;;5.40;;
64459;SDS011;50828;53.756;21.140;2022-07-23T15:41:20;5.70;;;5.10;;
64459;SDS011;50828;53.756;21.140;2022-07-23T15:46:30;7.70;;;4.80;;
64459;SDS011;50828;53.756;21.140;2022-07-23T15:51:38;6.90;;;5.00;;
64459;SDS011;50828;53.756;21.140;2022-07-23T15:56:51;6.70;;;5.30;;
64459;SDS011;50828;53.756;21.140;2022-07-23T16:02:01;6.80;;;5.70;;
64459;SDS011;50828;53.756;21.140;2022-07-23T16:07:11;8.80;;;5.70;;
64459;SDS011;50828;53.756;21.140;2022-07-23T16:12:20;7.50;;;5.50;;
64459;SDS011;50828;53.756;21.140;2022-07-23T16:17:30;7.00;;;5.10;;
64459;SDS011;50828;53.756;21.140;2022-07-23T16:22:39;7.00;;;6.20;;
64459;SDS011;50828;53.756;21.140;2022-07-23T16:27:48;6.80;;;5.70;;
64459;SDS011;50828;53.756;21.140;2022-07-23T16:32:56;6.70;;;5.50;;
64459;SDS011;50828;53.756;21.140;2022-07-23T16:38:11;7.10;;;6.20;;
64459;SDS011;50828;53.756;21.140;2022-07-23T16:43:20;9.10;;;6.10;;
64459;SDS011;50828;53.756;21.140;2022-07-23T16:48:30;6.50;;;5.80;;
64459;SDS011;50828;53.756;21.140;2022-07-23T16:53:40;10.70;;;6.50;;
64459;SDS011;50828;53.756;21.140;2022-07-23T16:58:49;8.00;;;6.50;;
64459;SDS011;50828;53.756;21.140;2022-07-23T17:03:58;6.70;;;5.90;;
64459;SDS011;50828;53.756;21.140;2022-07-23T17:09:09;7.30;;;6.30;;
64459;SDS011;50828;53.756;21.140;2022-07-23T17:14:18;8.20;;;7.00;;
64459;SDS011;50828;53.756;21.140;2022-07-23T17:19:29;8.80;;;7.30;;
64459;SDS011;50828;53.756;21.140;2022-07-23T17:24:38;7.90;;;6.60;;
64459;SDS011;50828;53.756;21.140;2022-07-23T17:29:48;8.10;;;7.10;;
64459;SDS011;50828;53.756;21.140;2022-07-23T17:34:57;7.80;;;6.90;;
64459;SDS011;50828;53.756;21.140;2022-07-23T17:40:07;8.00;;;7.10;;
64459;SDS011;50828;53.756;21.140;2022-07-23T17:45:16;8.70;;;7.30;;
64459;SDS011;50828;53.756;21.140;2022-07-23T17:50:25;9.00;;;7.30;;
64459;SDS011;50828;53.756;21.140;2022-07-23T17:55:34;9.10;;;7.40;;
64459;SDS011;50828;53.756;21.140;2022-07-23T18:00:44;8.30;;;7.30;;
64459;SDS011;50828;53.756;21.140;2022-07-23T18:05:53;10.60;;;7.70;;
64459;SDS011;50828;53.756;21.140;2022-07-23T18:11:01;9.80;;;8.10;;
64459;SDS011;50828;53.756;21.140;2022-07-23T18:16:10;9.30;;;7.80;;
64459;SDS011;50828;53.756;21.140;2022-07-23T18:21:19;8.80;;;7.70;;
64459;SDS011;50828;53.756;21.140;2022-07-23T18:26:28;9.60;;;7.40;;
64459;SDS011;50828;53.756;21.140;2022-07-23T18:31:37;9.80;;;8.10;;
64459;SDS011;50828;53.756;21.140;2022-07-23T18:36:46;9.90;;;8.20;;
64459;SDS011;50828;53.756;21.140;2022-07-23T18:41:56;9.20;;;8.10;;
64459;SDS011;50828;53.756;21.140;2022-07-23T18:47:06;10.90;;;8.80;;
64459;SDS011;50828;53.756;21.140;2022-07-23T18:52:15;9.00;;;8.10;;
64459;SDS011;50828;53.756;21.140;2022-07-23T18:57:24;10.10;;;7.80;;
64459;SDS011;50828;53.756;21.140;2022-07-23T19:02:33;9.70;;;8.30;;
64459;SDS011;50828;53.756;21.140;2022-07-23T19:07:43;9.70;;;8.70;;
64459;SDS011;50828;53.756;21.140;2022-07-23T19:12:51;12.00;;;9.60;;
64459;SDS011;50828;53.756;21.140;2022-07-23T19:18:01;10.10;;;8.90;;
64459;SDS011;50828;53.756;21.140;2022-07-23T19:23:10;8.90;;;7.90;;
64459;SDS011;50828;53.756;21.140;2022-07-23T19:28:19;9.60;;;8.40;;
64459;SDS011;50828;53.756;21.140;2022-07-23T19:33:27;9.30;;;8.30;;
64459;SDS011;50828;53.756;21.140;2022-07-23T19:38:36;9.20;;;8.30;;
64459;SDS011;50828;53.756;21.140;2022-07-23T19:43:45;10.20;;;9.20;;
64459;SDS011;50828;53.756;21.140;2022-07-23T19:48:53;10.00;;;8.80;;
64459;SDS011;50828;53.756;21.140;2022-07-23T19:54:02;8.80;;;8.00;;
64459;SDS011;50828;53.756;21.140;2022-07-23T19:59:11;10.50;;;9.00;;
64459;SDS011;50828;53.756;21.140;2022-07-23T20:04:20;9.50;;;8.60;;
64459;SDS011;50828;53.756;21.140;2022-07-23T20:09:29;9.60;;;8.70;;
64459;SDS011;50828;53.756;21.140;2022-07-23T20:14:38;10.70;;;8.70;;
64459;SDS011;50828;53.756;21.140;2022-07-23T20:19:47;11.80;;;9.30;;
64459;SDS011;50828;53.756;21.140;2022-07-23T20:24:55;10.70;;;8.90;;
64459;SDS011;50828;53.756;21.140;2022-07-23T20:30:05;10.50;;;9.20;;
64459;SDS011;50828;53.756;21.140;2022-07-23T20:35:14;10.80;;;8.90;;
64459;SDS011;50828;53.756;21.140;2022-07-23T20:40:23;10.00;;;9.00;;
64459;SDS011;50828;53.756;21.140;2022-07-23T20:45:31;10.70;;;9.20;;
64459;SDS011;50828;53.756;21.140;2022-07-23T20:50:39;10.40;;;9.30;;
64459;SDS011;50828;53.756;21.140;2022-07-23T20:55:48;11.60;;;10.10;;
64459;SDS011;50828;53.756;21.140;2022-07-23T21:00:59;13.80;;;10.10;;
64459;SDS011;50828;53.756;21.140;2022-07-23T21:06:09;11.90;;;9.60;;
64459;SDS011;50828;53.756;21.140;2022-07-23T21:11:18;13.40;;;10.80;;
64459;SDS011;50828;53.756;21.140;2022-07-23T21:16:27;11.90;;;9.60;;
64459;SDS011;50828;53.756;21.140;2022-07-23T21:21:36;12.00;;;10.20;;
64459;SDS011;50828;53.756;21.140;2022-07-23T21:26:45;12.40;;;11.10;;
64459;SDS011;50828;53.756;21.140;2022-07-23T21:31:53;14.00;;;10.60;;
64459;SDS011;50828;53.756;21.140;2022-07-23T21:37:02;13.80;;;10.40;;
64459;SDS011;50828;53.756;21.140;2022-07-23T21:42:11;10.50;;;9.20;;
64459;SDS011;50828;53.756;21.140;2022-07-23T21:47:24;12.80;;;8.60;;
64459;SDS011;50828;53.756;21.140;2022-07-23T21:52:33;12.00;;;7.20;;
64459;SDS011;50828;53.756;21.140;2022-07-23T21:57:41;11.10;;;5.80;;
64459;SDS011;50828;53.756;21.140;2022-07-23T22:02:49;10.30;;;5.50;;
64459;SDS011;50828;53.756;21.140;2022-07-23T22:07:58;10.80;;;5.30;;
64459;SDS011;50828;53.756;21.140;2022-07-23T22:13:07;9.90;;;5.10;;
64459;SDS011;50828;53.756;21.140;2022-07-23T22:18:14;9.30;;;5.00;;
64459;SDS011;50828;53.756;21.140;2022-07-23T22:23:23;8.20;;;4.90;;
64459;SDS011;50828;53.756;21.140;2022-07-23T22:28:32;10.40;;;4.30;;
64459;SDS011;50828;53.756;21.140;2022-07-23T22:33:40;8.20;;;3.80;;
64459;SDS011;50828;53.756;21.140;2022-07-23T22:38:49;8.80;;;3.80;;
64459;SDS011;50828;53.756;21.140;2022-07-23T22:43:58;8.70;;;3.40;;
64459;SDS011;50828;53.756;21.140;2022-07-23T22:49:06;4.80;;;2.20;;
64459;SDS011;50828;53.756;21.140;2022-07-23T22:54:15;5.20;;;2.10;;
64459;SDS011;50828;53.756;21.140;2022-07-23T22:59:23;4.90;;;1.90;;
64459;SDS011;50828;53.756;21.140;2022-07-23T23:04:33;5.10;;;1.70;;
64459;SDS011;50828;53.756;21.140;2022-07-23T23:09:41;4.10;;;1.50;;
64459;SDS011;50828;53.756;21.140;2022-07-23T23:14:50;5.40;;;1.80;;
64459;SDS011;50828;53.756;21.140;2022-07-23T23:19:59;4.70;;;1.60;;
64459;SDS011;50828;53.756;21.140;2022-07-23T23:25:07;4.50;;;1.90;;
64459;SDS011;50828;53.756;21.140;2022-07-23T23:30:16;4.60;;;1.70;;
64459;SDS011;50828;53.756;21.140;2022-07-23T23:35:25;5.50;;;1.80;;
64459;SDS011;50828;53.756;21.140;2022-07-23T23:40:33;3.30;;;1.90;;
64459;SDS011;50828;53.756;21.140;2022-07-23T23:45:42;4.70;;;1.70;;
64459;SDS011;50828;53.756;21.140;2022-07-23T23:50:50;4.30;;;2.20;;
64459;SDS011;50828;53.756;21.140;2022-07-23T23:55:58;3.70;;;1.70;;
